Time;durP1;ratioP1;P1;durP2;ratioP2;P2;SDS_P1;SDS_P2;PMS_P1;PMS_P2;Temp;Humidity;BMP_temperature;BMP_pressure;BME280_temperature;BME280_humidity;BME280_pressure;Samples;Min_cycle;Max_cycle;Signal;HPM_P1;HPM_P2
2021/11/11 00:01:53;;;;;;;0.60;0.60;;;;;;;;;;5034990;28;20249;-66
2021/11/11 00:04:20;;;;;;;0.50;0.50;;;;;;;;;;5035171;28;20449;-65
2021/11/11 00:06:46;;;;;;;0.50;0.50;;;;;;;;;;5033856;28;20526;-65
2021/11/11 00:09:13;;;;;;;0.50;0.50;;;;;;;;;;5035041;28;20268;-65
2021/11/11 00:11:40;;;;;;;0.40;0.40;;;;;;;;;;5034885;28;20256;-66
2021/11/11 00:14:06;;;;;;;0.50;0.50;;;;;;;;;;5034952;28;20173;-65
2021/11/11 00:16:32;;;;;;;0.50;0.50;;;;;;;;;;5035277;28;20588;-65
2021/11/11 00:18:58;;;;;;;0.40;0.40;;;;;;;;;;5034873;28;20715;-65
2021/11/11 00:21:24;;;;;;;0.50;0.50;;;;;;;;;;5034815;28;20185;-65
2021/11/11 00:23:50;;;;;;;0.47;0.47;;;;;;;;;;5034856;28;20525;-66
2021/11/11 00:26:16;;;;;;;0.50;0.50;;;;;;;;;;5034814;28;20449;-66
2021/11/11 00:28:42;;;;;;;0.50;0.50;;;;;;;;;;5034636;28;20462;-66
2021/11/11 00:31:08;;;;;;;0.50;0.50;;;;;;;;;;5034484;28;20413;-65
2021/11/11 00:33:34;;;;;;;0.50;0.50;;;;;;;;;;5034648;28;20959;-65
2021/11/11 00:36:00;;;;;;;0.50;0.50;;;;;;;;;;5034658;28;20415;-65
2021/11/11 00:38:26;;;;;;;0.50;0.50;;;;;;;;;;5034531;28;20186;-65
2021/11/11 00:40:52;;;;;;;0.50;0.50;;;;;;;;;;5034255;28;20206;-65
2021/11/11 00:43:19;;;;;;;0.50;0.50;;;;;;;;;;5034457;28;20405;-65
2021/11/11 00:45:45;;;;;;;0.50;0.50;;;;;;;;;;5034476;28;20403;-65
2021/11/11 00:48:11;;;;;;;0.50;0.50;;;;;;;;;;5034503;28;20261;-66
2021/11/11 00:50:38;;;;;;;0.57;0.57;;;;;;;;;;5033987;28;20224;-65
2021/11/11 00:53:06;;;;;;;0.50;0.50;;;;;;;;;;5034423;28;20232;-65
2021/11/11 00:55:32;;;;;;;0.50;0.50;;;;;;;;;;5034342;28;20517;-65
2021/11/11 00:58:00;;;;;;;0.60;0.60;;;;;;;;;;5034228;28;20182;-65
2021/11/11 01:00:26;;;;;;;0.50;0.50;;;;;;;;;;5033836;28;20559;-65
2021/11/11 01:02:52;;;;;;;0.50;0.50;;;;;;;;;;5034257;28;20244;-66
2021/11/11 01:05:19;;;;;;;0.52;0.52;;;;;;;;;;5033981;28;21150;-65
2021/11/11 01:07:45;;;;;;;0.50;0.50;;;;;;;;;;5033951;28;20166;-66
2021/11/11 01:10:12;;;;;;;0.47;0.47;;;;;;;;;;5033877;28;20663;-65
2021/11/11 01:12:39;;;;;;;0.50;0.50;;;;;;;;;;5032763;28;20529;-65
2021/11/11 01:15:07;;;;;;;0.50;0.50;;;;;;;;;;5033938;28;20180;-65
2021/11/11 01:17:33;;;;;;;0.50;0.50;;;;;;;;;;5034101;28;20196;-66
2021/11/11 01:19:59;;;;;;;0.50;0.50;;;;;;;;;;5033886;28;20664;-64
2021/11/11 01:22:25;;;;;;;0.50;0.50;;;;;;;;;;5033818;28;20661;-65
2021/11/11 01:24:51;;;;;;;0.50;0.50;;;;;;;;;;5032557;28;20189;-65
2021/11/11 01:27:17;;;;;;;0.50;0.50;;;;;;;;;;5033840;28;20195;-65
2021/11/11 01:29:44;;;;;;;0.50;0.50;;;;;;;;;;5033701;28;20202;-65
2021/11/11 01:32:10;;;;;;;0.50;0.50;;;;;;;;;;5032257;28;20557;-65
2021/11/11 01:34:36;;;;;;;0.60;0.60;;;;;;;;;;5032397;28;20181;-64
2021/11/11 01:37:02;;;;;;;0.50;0.50;;;;;;;;;;5033617;28;20404;-65
2021/11/11 01:39:28;;;;;;;0.50;0.50;;;;;;;;;;5033345;28;20214;-65
2021/11/11 01:41:55;;;;;;;0.40;0.40;;;;;;;;;;5033417;28;20636;-65
2021/11/11 01:44:21;;;;;;;0.50;0.50;;;;;;;;;;5032187;28;20421;-64
2021/11/11 01:46:47;;;;;;;0.60;0.60;;;;;;;;;;5033506;28;20173;-65
2021/11/11 01:49:13;;;;;;;0.50;0.50;;;;;;;;;;5032203;28;20294;-66
2021/11/11 01:51:40;;;;;;;0.50;0.50;;;;;;;;;;5033286;28;20680;-64
2021/11/11 01:54:06;;;;;;;0.50;0.50;;;;;;;;;;5033345;28;20183;-64
2021/11/11 01:56:32;;;;;;;0.50;0.50;;;;;;;;;;5032138;28;20192;-64
2021/11/11 01:58:58;;;;;;;0.40;0.40;;;;;;;;;;5033213;28;20198;-65
2021/11/11 02:01:24;;;;;;;0.50;0.50;;;;;;;;;;5033449;28;20526;-66
2021/11/11 02:03:52;;;;;;;0.50;0.50;;;;;;;;;;5033594;28;20669;-65
2021/11/11 02:06:18;;;;;;;0.50;0.50;;;;;;;;;;5032628;28;20173;-65
2021/11/11 02:08:44;;;;;;;0.50;0.50;;;;;;;;;;5035765;28;20540;-65
2021/11/11 02:11:10;;;;;;;0.50;0.50;;;;;;;;;;5033844;28;20410;-65
2021/11/11 02:13:36;;;;;;;0.57;0.57;;;;;;;;;;5033337;28;20267;-65
2021/11/11 02:16:03;;;;;;;0.47;0.47;;;;;;;;;;5033306;28;20413;-65
2021/11/11 02:18:30;;;;;;;0.50;0.50;;;;;;;;;;5031651;28;20188;-65
2021/11/11 02:20:56;;;;;;;0.50;0.50;;;;;;;;;;5033584;28;20235;-65
2021/11/11 02:23:22;;;;;;;0.50;0.50;;;;;;;;;;5033746;28;20165;-65
2021/11/11 02:25:48;;;;;;;0.50;0.50;;;;;;;;;;5033180;28;20202;-65
2021/11/11 02:28:16;;;;;;;0.50;0.50;;;;;;;;;;5032824;28;20172;-66
2021/11/11 02:30:44;;;;;;;0.50;0.50;;;;;;;;;;5032547;28;20267;-65
2021/11/11 02:33:15;;;;;;;0.50;0.50;;;;;;;;;;5032865;28;20199;-65
2021/11/11 02:35:41;;;;;;;0.50;0.50;;;;;;;;;;5032673;28;20666;-65
2021/11/11 02:38:08;;;;;;;0.50;0.50;;;;;;;;;;5032587;28;20648;-65
2021/11/11 02:40:35;;;;;;;0.50;0.50;;;;;;;;;;5032075;28;20221;-65
2021/11/11 02:43:01;;;;;;;0.50;0.50;;;;;;;;;;5032405;28;20172;-63
2021/11/11 02:45:32;;;;;;;0.50;0.50;;;;;;;;;;5031122;28;20176;-64
2021/11/11 02:47:58;;;;;;;0.50;0.50;;;;;;;;;;5031831;28;20437;-65
2021/11/11 02:53:42;;;;;;;0.50;0.50;;;;;;;;;;5032445;28;20179;-65
2021/11/11 02:56:08;;;;;;;0.50;0.50;;;;;;;;;;5031750;28;20211;-65
2021/11/11 02:58:34;;;;;;;0.50;0.50;;;;;;;;;;5032075;28;20180;-65
2021/11/11 03:01:05;;;;;;;0.50;0.50;;;;;;;;;;5031874;28;20559;-65
2021/11/11 03:03:32;;;;;;;0.40;0.40;;;;;;;;;;5032179;28;20840;-65
2021/11/11 03:05:58;;;;;;;0.50;0.50;;;;;;;;;;5031968;28;20169;-66
2021/11/11 03:08:24;;;;;;;0.50;0.50;;;;;;;;;;5031937;28;20176;-66
2021/11/11 03:10:50;;;;;;;0.50;0.50;;;;;;;;;;5031657;28;20196;-64
2021/11/11 03:13:18;;;;;;;0.50;0.50;;;;;;;;;;5032004;28;20165;-65
2021/11/11 03:15:44;;;;;;;0.60;0.60;;;;;;;;;;5031991;28;20260;-65
2021/11/11 03:18:11;;;;;;;0.50;0.50;;;;;;;;;;5031926;28;20176;-65
2021/11/11 03:20:37;;;;;;;0.50;0.50;;;;;;;;;;5031550;28;20208;-65
2021/11/11 03:23:03;;;;;;;0.50;0.50;;;;;;;;;;5031737;28;20191;-65
2021/11/11 03:25:31;;;;;;;0.55;0.55;;;;;;;;;;5031648;28;20408;-65
2021/11/11 03:27:57;;;;;;;0.40;0.40;;;;;;;;;;5031796;28;20256;-65
2021/11/11 03:30:25;;;;;;;0.50;0.50;;;;;;;;;;5030594;28;20196;-65
2021/11/11 03:32:51;;;;;;;0.50;0.50;;;;;;;;;;5031612;28;20258;-65
2021/11/11 03:35:18;;;;;;;0.50;0.50;;;;;;;;;;5031650;28;20177;-65
2021/11/11 03:37:45;;;;;;;0.60;0.60;;;;;;;;;;5031544;28;20180;-65
2021/11/11 03:40:13;;;;;;;0.50;0.50;;;;;;;;;;5031189;28;20208;-64
2021/11/11 03:42:39;;;;;;;0.50;0.50;;;;;;;;;;5031420;28;20652;-65
2021/11/11 03:45:06;;;;;;;0.50;0.50;;;;;;;;;;5031479;28;20176;-65
2021/11/11 03:47:32;;;;;;;0.60;0.60;;;;;;;;;;5031552;28;20177;-65
2021/11/11 03:49:58;;;;;;;0.50;0.50;;;;;;;;;;5031306;28;20204;-64
2021/11/11 03:52:24;;;;;;;0.50;0.50;;;;;;;;;;5031272;28;20544;-65
2021/11/11 03:54:51;;;;;;;0.60;0.60;;;;;;;;;;5031399;28;20286;-65
2021/11/11 03:57:17;;;;;;;0.50;0.50;;;;;;;;;;5031359;28;20169;-65
2021/11/11 03:59:43;;;;;;;0.60;0.60;;;;;;;;;;5031287;28;20235;-65
2021/11/11 04:02:13;;;;;;;0.50;0.50;;;;;;;;;;5031169;28;20811;-65
2021/11/11 04:04:39;;;;;;;0.50;0.50;;;;;;;;;;5031327;28;20180;-65
2021/11/11 04:07:06;;;;;;;0.40;0.40;;;;;;;;;;5031226;28;20177;-65
2021/11/11 04:09:32;;;;;;;0.50;0.50;;;;;;;;;;5031189;28;20205;-65
2021/11/11 04:11:58;;;;;;;0.43;0.43;;;;;;;;;;5030946;28;20192;-65
2021/11/11 04:14:24;;;;;;;0.70;0.70;;;;;;;;;;5031211;28;20169;-65
2021/11/11 04:16:50;;;;;;;0.50;0.50;;;;;;;;;;5031195;28;20187;-65
2021/11/11 04:19:17;;;;;;;0.40;0.40;;;;;;;;;;5031103;28;20192;-65
2021/11/11 04:21:43;;;;;;;0.40;0.40;;;;;;;;;;5031032;28;20551;-65
2021/11/11 04:24:09;;;;;;;0.50;0.50;;;;;;;;;;5031306;28;20177;-65
2021/11/11 04:26:44;;;;;;;0.50;0.50;;;;;;;;;;5031415;28;20652;-65
2021/11/11 04:29:22;;;;;;;0.50;0.50;;;;;;;;;;5031063;28;20283;-65
2021/11/11 04:32:00;;;;;;;0.40;0.40;;;;;;;;;;5030823;28;20169;-66
2021/11/11 04:34:27;;;;;;;0.50;0.50;;;;;;;;;;5031247;28;20169;-65
2021/11/11 04:44:36;;;;;;;0.50;0.50;;;;;;;;;;5034458;28;20216;-65
2021/11/11 04:50:09;;;;;;;0.50;0.50;;;;;;;;;;5034452;28;20275;-65
2021/11/11 05:01:15;;;;;;;0.50;0.50;;;;;;;;;;5030583;28;20283;-66
2021/11/11 05:03:48;;;;;;;0.50;0.50;;;;;;;;;;5033941;28;20180;-65
2021/11/11 05:06:15;;;;;;;0.50;0.50;;;;;;;;;;5033812;28;20717;-65
2021/11/11 05:08:41;;;;;;;0.50;0.50;;;;;;;;;;5034148;28;20174;-65
2021/11/11 05:11:08;;;;;;;0.50;0.50;;;;;;;;;;5038230;28;20362;-65
2021/11/11 05:13:34;;;;;;;0.50;0.50;;;;;;;;;;5034070;28;20304;-65
2021/11/11 05:16:01;;;;;;;0.50;0.50;;;;;;;;;;5033960;28;20180;-65
2021/11/11 05:18:27;;;;;;;0.60;0.60;;;;;;;;;;5033878;28;20660;-65
2021/11/11 05:20:53;;;;;;;0.60;0.60;;;;;;;;;;5032309;28;20260;-65
2021/11/11 05:23:19;;;;;;;0.50;0.50;;;;;;;;;;5033785;28;20231;-65
2021/11/11 05:25:45;;;;;;;0.57;0.57;;;;;;;;;;5033764;28;20400;-64
2021/11/11 05:28:11;;;;;;;0.50;0.50;;;;;;;;;;5033665;28;20180;-65
2021/11/11 05:30:38;;;;;;;0.50;0.50;;;;;;;;;;5033381;28;20197;-65
2021/11/11 05:33:04;;;;;;;0.50;0.50;;;;;;;;;;5033612;28;20176;-65
2021/11/11 05:35:30;;;;;;;0.60;0.60;;;;;;;;;;5033620;28;20181;-64
2021/11/11 05:37:56;;;;;;;0.55;0.55;;;;;;;;;;5033544;28;20185;-64
2021/11/11 05:40:22;;;;;;;0.50;0.50;;;;;;;;;;5035956;22;20228;-65
2021/11/11 05:42:49;;;;;;;0.50;0.50;;;;;;;;;;5012464;28;21132;-64
2021/11/11 05:45:17;;;;;;;0.50;0.50;;;;;;;;;;5013448;28;20188;-65
2021/11/11 05:47:44;;;;;;;0.50;0.50;;;;;;;;;;5013610;28;20197;-65
2021/11/11 05:50:11;;;;;;;0.50;0.50;;;;;;;;;;5011983;28;20189;-65
2021/11/11 05:52:37;;;;;;;0.40;0.40;;;;;;;;;;5011948;28;20185;-64
2021/11/11 05:55:04;;;;;;;0.50;0.50;;;;;;;;;;5012976;28;20185;-65
2021/11/11 05:57:30;;;;;;;0.60;0.60;;;;;;;;;;5012990;28;20178;-64
2021/11/11 05:59:56;;;;;;;0.50;0.50;;;;;;;;;;4999667;28;20213;-65
2021/11/11 06:02:22;;;;;;;0.50;0.50;;;;;;;;;;4993493;28;20429;-64
2021/11/11 06:04:48;;;;;;;0.50;0.50;;;;;;;;;;4993711;28;20179;-64
2021/11/11 06:07:15;;;;;;;0.50;0.50;;;;;;;;;;5006444;28;20181;-65
2021/11/11 06:09:41;;;;;;;0.50;0.50;;;;;;;;;;5012427;28;20697;-64
2021/11/11 06:12:07;;;;;;;0.60;0.60;;;;;;;;;;5012887;28;20184;-65
2021/11/11 06:14:33;;;;;;;0.50;0.50;;;;;;;;;;5011988;28;20181;-64
2021/11/11 06:17:00;;;;;;;0.50;0.50;;;;;;;;;;5012793;28;20209;-63
2021/11/11 06:19:27;;;;;;;0.50;0.50;;;;;;;;;;5012516;28;20212;-67
2021/11/11 06:21:54;;;;;;;0.68;0.68;;;;;;;;;;5012612;28;20174;-63
2021/11/11 06:24:21;;;;;;;0.50;0.50;;;;;;;;;;5010591;28;20181;-64
2021/11/11 06:26:47;;;;;;;0.50;0.50;;;;;;;;;;5012818;28;20208;-68
2021/11/11 06:29:13;;;;;;;0.50;0.50;;;;;;;;;;5012351;28;20237;-65
2021/11/11 06:31:39;;;;;;;0.60;0.60;;;;;;;;;;5012064;28;20645;-64
2021/11/11 06:34:05;;;;;;;0.50;0.50;;;;;;;;;;5007455;28;20653;-65
2021/11/11 06:36:32;;;;;;;0.50;0.50;;;;;;;;;;5012640;28;20177;-65
2021/11/11 06:38:58;;;;;;;0.50;0.50;;;;;;;;;;5007297;28;20195;-64
2021/11/11 06:41:24;;;;;;;0.55;0.55;;;;;;;;;;4993764;28;20212;-64
2021/11/11 06:43:50;;;;;;;0.60;0.60;;;;;;;;;;5012299;28;20192;-64
2021/11/11 06:46:16;;;;;;;0.50;0.50;;;;;;;;;;5012147;28;20178;-65
2021/11/11 06:48:42;;;;;;;0.60;0.60;;;;;;;;;;5012475;28;20467;-65
2021/11/11 06:51:08;;;;;;;0.50;0.50;;;;;;;;;;5011672;28;20440;-64
2021/11/11 06:53:34;;;;;;;0.50;0.50;;;;;;;;;;5010367;28;20256;-64
2021/11/11 06:56:00;;;;;;;0.50;0.50;;;;;;;;;;5012036;28;20670;-64
2021/11/11 06:58:26;;;;;;;0.40;0.40;;;;;;;;;;5011947;28;20181;-64
2021/11/11 07:00:54;;;;;;;0.60;0.60;;;;;;;;;;5011371;28;20469;-65
2021/11/11 07:03:20;;;;;;;0.60;0.60;;;;;;;;;;5011489;28;20220;-65
2021/11/11 07:05:47;;;;;;;0.60;0.60;;;;;;;;;;5011665;28;20202;-65
2021/11/11 07:08:13;;;;;;;0.60;0.60;;;;;;;;;;5012081;28;20409;-64
2021/11/11 07:10:40;;;;;;;0.50;0.50;;;;;;;;;;4993520;28;20198;-64
2021/11/11 07:13:06;;;;;;;0.60;0.60;;;;;;;;;;4998076;28;20224;-66
2021/11/11 07:15:33;;;;;;;0.50;0.50;;;;;;;;;;5009233;28;20174;-61
2021/11/11 07:17:59;;;;;;;0.50;0.50;;;;;;;;;;4995578;28;20312;-65
2021/11/11 07:20:25;;;;;;;0.50;0.50;;;;;;;;;;5011660;28;20284;-65
2021/11/11 07:22:54;;;;;;;0.50;0.50;;;;;;;;;;5011800;28;20255;-64
2021/11/11 07:25:20;;;;;;;0.50;0.50;;;;;;;;;;5011844;28;20174;-64
2021/11/11 07:27:47;;;;;;;0.50;0.50;;;;;;;;;;5011360;28;20185;-66
2021/11/11 07:30:14;;;;;;;0.50;0.50;;;;;;;;;;5009881;28;20697;-64
2021/11/11 07:32:40;;;;;;;0.60;0.60;;;;;;;;;;5011509;28;20177;-65
2021/11/11 07:35:09;;;;;;;0.50;0.50;;;;;;;;;;5010994;28;20268;-64
2021/11/11 07:37:36;;;;;;;0.50;0.50;;;;;;;;;;5009468;28;20277;-67
2021/11/11 07:40:02;;;;;;;0.50;0.50;;;;;;;;;;5010831;28;20215;-64
2021/11/11 07:42:28;;;;;;;0.50;0.50;;;;;;;;;;5011874;28;20264;-66
2021/11/11 07:44:54;;;;;;;0.50;0.50;;;;;;;;;;5001555;28;20269;-66
2021/11/11 07:47:26;;;;;;;0.50;0.50;;;;;;;;;;4992174;28;20406;-67
2021/11/11 07:49:52;;;;;;;0.50;0.50;;;;;;;;;;4992093;28;20456;-67
2021/11/11 07:52:19;;;;;;;0.50;0.50;;;;;;;;;;4991849;28;20174;-67
2021/11/11 07:54:45;;;;;;;0.50;0.50;;;;;;;;;;4992098;28;20445;-67
2021/11/11 07:57:11;;;;;;;0.50;0.50;;;;;;;;;;4992053;28;20178;-66
2021/11/11 07:59:40;;;;;;;0.50;0.50;;;;;;;;;;4991863;28;20210;-67
2021/11/11 08:02:06;;;;;;;0.50;0.50;;;;;;;;;;4991760;28;20410;-67
2021/11/11 08:04:32;;;;;;;0.50;0.50;;;;;;;;;;4992181;28;20178;-68
2021/11/11 08:06:58;;;;;;;0.50;0.50;;;;;;;;;;4991794;28;20178;-67
2021/11/11 08:09:24;;;;;;;0.50;0.50;;;;;;;;;;4991898;28;20197;-66
2021/11/11 08:11:50;;;;;;;0.50;0.50;;;;;;;;;;4991762;28;20414;-67
2021/11/11 08:14:16;;;;;;;0.50;0.50;;;;;;;;;;4991892;28;20406;-66
2021/11/11 08:16:42;;;;;;;0.50;0.50;;;;;;;;;;4994923;28;20178;-67
2021/11/11 08:19:09;;;;;;;0.50;0.50;;;;;;;;;;4995510;28;20174;-66
2021/11/11 08:21:35;;;;;;;0.50;0.50;;;;;;;;;;4995293;28;20289;-67
2021/11/11 08:24:01;;;;;;;0.50;0.50;;;;;;;;;;4995552;28;20241;-67
2021/11/11 08:26:27;;;;;;;0.50;0.50;;;;;;;;;;4995445;28;20407;-67
2021/11/11 08:28:53;;;;;;;0.50;0.50;;;;;;;;;;4995445;28;21032;-67
2021/11/11 08:31:19;;;;;;;0.50;0.50;;;;;;;;;;4995301;28;20233;-67
2021/11/11 08:33:45;;;;;;;0.50;0.50;;;;;;;;;;4995329;28;20201;-68
2021/11/11 08:36:11;;;;;;;0.40;0.40;;;;;;;;;;4995213;28;20198;-67
2021/11/11 08:38:37;;;;;;;0.60;0.60;;;;;;;;;;4995526;28;20181;-66
2021/11/11 08:41:03;;;;;;;0.50;0.50;;;;;;;;;;4994771;28;20215;-67
2021/11/11 08:43:29;;;;;;;0.50;0.50;;;;;;;;;;4995341;28;20450;-67
2021/11/11 08:45:55;;;;;;;0.50;0.50;;;;;;;;;;4995217;28;20174;-67
2021/11/11 08:48:22;;;;;;;0.40;0.40;;;;;;;;;;4995160;28;20170;-66
2021/11/11 08:50:48;;;;;;;0.50;0.50;;;;;;;;;;4994622;28;20437;-66
2021/11/11 08:53:14;;;;;;;0.50;0.50;;;;;;;;;;4994989;28;20712;-66
2021/11/11 08:55:41;;;;;;;0.50;0.50;;;;;;;;;;4993771;28;20183;-65
2021/11/11 08:58:08;;;;;;;0.50;0.50;;;;;;;;;;4995048;28;20606;-66
2021/11/11 09:00:35;;;;;;;0.50;0.50;;;;;;;;;;4994460;28;20202;-66
2021/11/11 09:03:03;;;;;;;0.50;0.50;;;;;;;;;;4994872;28;20259;-66
2021/11/11 09:05:32;;;;;;;0.50;0.50;;;;;;;;;;4995745;28;20187;-67
2021/11/11 09:07:59;;;;;;;0.50;0.50;;;;;;;;;;5000747;28;20615;-67
2021/11/11 09:10:25;;;;;;;0.40;0.40;;;;;;;;;;5013994;28;20199;-66
2021/11/11 09:12:53;;;;;;;0.40;0.40;;;;;;;;;;5014308;28;20638;-65
2021/11/11 09:15:22;;;;;;;0.50;0.50;;;;;;;;;;5014190;28;20263;-66
2021/11/11 09:17:48;;;;;;;0.40;0.40;;;;;;;;;;5014084;28;20199;-65
2021/11/11 09:20:15;;;;;;;0.60;0.60;;;;;;;;;;5013525;28;20260;-66
2021/11/11 09:22:42;;;;;;;0.50;0.50;;;;;;;;;;5013984;28;20168;-65
2021/11/11 09:25:09;;;;;;;0.40;0.40;;;;;;;;;;5013791;28;20168;-65
2021/11/11 09:27:35;;;;;;;0.40;0.40;;;;;;;;;;5013804;28;20174;-67
2021/11/11 09:30:01;;;;;;;0.50;0.50;;;;;;;;;;5013848;28;20212;-66
2021/11/11 09:32:27;;;;;;;0.50;0.50;;;;;;;;;;5013608;28;20179;-65
2021/11/11 09:34:55;;;;;;;0.40;0.40;;;;;;;;;;5013657;28;20234;-66
2021/11/11 09:37:21;;;;;;;0.50;0.50;;;;;;;;;;5013666;28;20416;-65
2021/11/11 09:39:47;;;;;;;0.50;0.50;;;;;;;;;;5013358;28;20286;-66
2021/11/11 09:42:13;;;;;;;0.40;0.40;;;;;;;;;;5013333;28;20414;-67
2021/11/11 09:44:39;;;;;;;0.50;0.50;;;;;;;;;;5013636;28;20406;-66
2021/11/11 09:47:05;;;;;;;0.50;0.50;;;;;;;;;;5013500;28;20177;-66
2021/11/11 09:49:32;;;;;;;0.50;0.50;;;;;;;;;;5013363;28;20847;-66
2021/11/11 09:51:58;;;;;;;0.47;0.47;;;;;;;;;;5013485;28;20673;-65
2021/11/11 09:59:37;;;;;;;0.40;0.40;;;;;;;;;;5013100;28;20214;-66
2021/11/11 10:02:03;;;;;;;0.50;0.50;;;;;;;;;;5012993;28;20168;-65
2021/11/11 10:04:30;;;;;;;0.40;0.40;;;;;;;;;;5013196;28;20184;-67
2021/11/11 10:06:56;;;;;;;0.40;0.40;;;;;;;;;;5013199;28;20180;-66
2021/11/11 10:09:23;;;;;;;0.40;0.40;;;;;;;;;;5013191;28;20185;-66
2021/11/11 10:11:54;;;;;;;0.40;0.40;;;;;;;;;;5012846;28;20209;-68
2021/11/11 10:14:24;;;;;;;0.40;0.40;;;;;;;;;;5012883;28;20179;-66
2021/11/11 10:16:52;;;;;;;0.40;0.40;;;;;;;;;;5012828;28;20181;-67
2021/11/11 10:19:18;;;;;;;0.50;0.50;;;;;;;;;;5012824;28;20193;-66
2021/11/11 10:21:53;;;;;;;0.45;0.45;;;;;;;;;;5012757;28;20196;-65
2021/11/11 10:24:21;;;;;;;0.40;0.40;;;;;;;;;;5012945;28;20172;-67
2021/11/11 10:26:56;;;;;;;0.50;0.50;;;;;;;;;;5011578;28;20180;-67
2021/11/11 10:29:23;;;;;;;0.50;0.50;;;;;;;;;;5012731;28;20185;-66
2021/11/11 10:31:50;;;;;;;0.50;0.50;;;;;;;;;;5012524;28;20169;-67
2021/11/11 10:34:16;;;;;;;0.40;0.40;;;;;;;;;;5012630;28;20169;-67
2021/11/11 10:36:47;;;;;;;0.40;0.40;;;;;;;;;;5012711;28;20710;-67
2021/11/11 10:39:22;;;;;;;0.47;0.47;;;;;;;;;;5011829;28;20408;-67
2021/11/11 10:41:48;;;;;;;0.50;0.50;;;;;;;;;;5012567;28;20260;-67
2021/11/11 10:44:15;;;;;;;0.40;0.40;;;;;;;;;;5012606;28;20633;-67
2021/11/11 10:46:49;;;;;;;0.40;0.40;;;;;;;;;;5012529;28;20173;-67
2021/11/11 10:49:23;;;;;;;0.40;0.40;;;;;;;;;;5012483;28;20263;-65
2021/11/11 10:51:49;;;;;;;0.30;0.30;;;;;;;;;;5012343;28;20228;-66
2021/11/11 10:54:15;;;;;;;0.40;0.40;;;;;;;;;;5012398;28;20477;-65
2021/11/11 10:56:43;;;;;;;0.30;0.30;;;;;;;;;;5012427;28;20435;-65
2021/11/11 10:59:13;;;;;;;0.30;0.30;;;;;;;;;;5012255;28;20371;-65
2021/11/11 11:01:39;;;;;;;0.30;0.30;;;;;;;;;;5011996;28;20890;-65
2021/11/11 11:04:05;;;;;;;0.30;0.30;;;;;;;;;;5012109;28;20404;-66
2021/11/11 11:06:33;;;;;;;0.30;0.30;;;;;;;;;;5011787;28;20419;-65
2021/11/11 11:08:59;;;;;;;0.30;0.30;;;;;;;;;;5012044;28;20830;-66
2021/11/11 11:11:33;;;;;;;0.30;0.30;;;;;;;;;;5011908;28;20820;-66
2021/11/11 11:14:00;;;;;;;0.30;0.30;;;;;;;;;;5012095;28;20459;-65
2021/11/11 11:16:28;;;;;;;0.30;0.30;;;;;;;;;;5012051;28;20417;-65
2021/11/11 11:18:57;;;;;;;0.30;0.30;;;;;;;;;;5012060;28;20440;-66
2021/11/11 11:21:25;;;;;;;0.30;0.30;;;;;;;;;;5011648;28;20549;-65
2021/11/11 11:23:54;;;;;;;0.30;0.30;;;;;;;;;;5012224;28;20780;-66
2021/11/11 11:26:24;;;;;;;0.30;0.20;;;;;;;;;;5011885;28;20891;-65
2021/11/11 11:31:54;;;;;;;0.30;0.30;;;;;;;;;;5010678;28;20391;-65
2021/11/11 11:34:20;;;;;;;0.30;0.30;;;;;;;;;;5011848;28;20371;-66
2021/11/11 11:36:48;;;;;;;0.20;0.20;;;;;;;;;;5011785;28;20409;-65
2021/11/11 11:39:24;;;;;;;0.30;0.30;;;;;;;;;;5011509;28;20412;-66
2021/11/11 11:41:50;;;;;;;0.20;0.20;;;;;;;;;;5046764;22;20508;-66
2021/11/11 11:44:16;;;;;;;0.20;0.20;;;;;;;;;;5011668;28;20433;-66
2021/11/11 11:46:51;;;;;;;0.30;0.30;;;;;;;;;;5010889;28;20466;-65
2021/11/11 11:49:17;;;;;;;0.30;0.30;;;;;;;;;;5011736;28;20409;-65
2021/11/11 11:51:43;;;;;;;0.30;0.30;;;;;;;;;;5029454;28;20423;-66
2021/11/11 11:54:20;;;;;;;0.30;0.30;;;;;;;;;;5035492;28;20407;-66
2021/11/11 11:56:52;;;;;;;0.30;0.30;;;;;;;;;;5035525;28;20795;-65
2021/11/11 11:59:20;;;;;;;0.30;0.30;;;;;;;;;;5035478;28;20404;-65
2021/11/11 12:04:27;;;;;;;0.30;0.30;;;;;;;;;;5035370;28;20882;-66
2021/11/11 12:09:55;;;;;;;0.30;0.30;;;;;;;;;;5019190;28;20768;-65
2021/11/11 12:15:07;;;;;;;0.30;0.30;;;;;;;;;;5035146;28;20388;-65
2021/11/11 12:17:50;;;;;;;0.30;0.30;;;;;;;;;;5035155;28;21172;-66
2021/11/11 12:38:31;;;;;;;0.30;0.30;;;;;;;;;;4992903;28;20417;-65
2021/11/11 12:40:08;;;;;;;0.30;0.30;;;;;;;;;;5025435;28;20491;-65
2021/11/11 12:42:41;;;;;;;0.30;0.30;;;;;;;;;;5034508;28;20402;-65
2021/11/11 12:45:09;;;;;;;0.30;0.30;;;;;;;;;;5034127;28;20396;-65
2021/11/11 12:47:56;;;;;;;0.30;0.30;;;;;;;;;;5034326;28;20382;-65
2021/11/11 12:50:31;;;;;;;0.40;0.40;;;;;;;;;;5034208;28;20521;-65
2021/11/11 12:53:09;;;;;;;0.30;0.30;;;;;;;;;;5034391;28;20418;-65
2021/11/11 12:55:47;;;;;;;0.30;0.30;;;;;;;;;;5034415;28;20402;-65
2021/11/11 12:58:16;;;;;;;0.40;0.40;;;;;;;;;;5034326;28;20928;-65
2021/11/11 13:00:53;;;;;;;0.30;0.30;;;;;;;;;;5033636;28;20459;-65
2021/11/11 13:03:19;;;;;;;0.40;0.40;;;;;;;;;;5034297;28;20164;-65
2021/11/11 13:05:47;;;;;;;0.30;0.30;;;;;;;;;;5034138;28;20379;-65
2021/11/11 13:08:14;;;;;;;0.40;0.40;;;;;;;;;;5033068;28;20264;-65
2021/11/11 13:10:54;;;;;;;0.40;0.40;;;;;;;;;;5033853;28;20514;-65
2021/11/11 13:13:25;;;;;;;0.40;0.40;;;;;;;;;;5034039;28;20177;-65
2021/11/11 13:15:51;;;;;;;0.40;0.40;;;;;;;;;;5033989;28;20185;-65
2021/11/11 13:18:35;;;;;;;0.40;0.40;;;;;;;;;;5033898;28;20188;-65
2021/11/11 13:21:51;;;;;;;0.30;0.30;;;;;;;;;;5033503;28;20683;-65
2021/11/11 13:24:24;;;;;;;0.40;0.40;;;;;;;;;;5033434;28;20180;-65
2021/11/11 14:00:25;;;;;;;0.40;0.40;;;;;;;;;;5032873;28;20274;-65
2021/11/11 15:18:39;;;;;;;0.40;0.40;;;;;;;;;;5010525;28;20715;-65
2021/11/11 16:21:43;;;;;;;0.43;0.43;;;;;;;;;;5030754;28;20605;-65
2021/11/11 16:26:49;;;;;;;0.50;0.50;;;;;;;;;;5031260;28;20186;-64
2021/11/11 16:29:14;;;;;;;0.50;0.50;;;;;;;;;;5030685;28;20175;-65
2021/11/11 16:31:40;;;;;;;0.50;0.50;;;;;;;;;;5030636;28;20429;-64
2021/11/11 16:34:06;;;;;;;0.50;0.50;;;;;;;;;;5030242;28;20414;-65
2021/11/11 16:36:33;;;;;;;0.50;0.50;;;;;;;;;;5031931;28;20435;-64
2021/11/11 16:39:00;;;;;;;0.47;0.47;;;;;;;;;;5034623;28;20172;-64
2021/11/11 16:41:26;;;;;;;0.50;0.50;;;;;;;;;;5034121;28;20211;-65
2021/11/11 16:43:52;;;;;;;0.50;0.50;;;;;;;;;;5034296;28;20187;-64
2021/11/11 16:46:18;;;;;;;0.50;0.50;;;;;;;;;;5034159;28;20265;-64
2021/11/11 16:48:44;;;;;;;0.50;0.50;;;;;;;;;;5033383;28;20179;-65
2021/11/11 16:51:11;;;;;;;0.50;0.50;;;;;;;;;;5034102;28;20686;-65
2021/11/11 16:53:37;;;;;;;0.60;0.60;;;;;;;;;;5034326;28;20658;-65
2021/11/11 16:56:04;;;;;;;0.50;0.50;;;;;;;;;;5033616;28;20186;-65
2021/11/11 16:58:30;;;;;;;0.50;0.50;;;;;;;;;;5034272;28;20166;-65
2021/11/11 17:00:56;;;;;;;0.40;0.40;;;;;;;;;;5033464;28;20678;-65
2021/11/11 17:03:22;;;;;;;0.50;0.50;;;;;;;;;;5034229;28;20403;-65
2021/11/11 17:05:49;;;;;;;0.50;0.50;;;;;;;;;;5034018;28;20171;-65
2021/11/11 17:08:16;;;;;;;0.40;0.40;;;;;;;;;;5033619;28;20215;-65
2021/11/11 17:10:43;;;;;;;0.50;0.50;;;;;;;;;;5033822;28;20199;-65
2021/11/11 17:13:09;;;;;;;0.40;0.40;;;;;;;;;;5032460;28;20179;-65
2021/11/11 17:15:38;;;;;;;0.40;0.40;;;;;;;;;;5034365;28;20234;-65
2021/11/11 17:18:05;;;;;;;0.50;0.50;;;;;;;;;;5033427;28;20167;-65
2021/11/11 17:20:32;;;;;;;0.50;0.50;;;;;;;;;;5033501;28;20208;-65
2021/11/11 17:23:00;;;;;;;0.50;0.50;;;;;;;;;;5033657;28;20177;-65
2021/11/11 17:28:05;;;;;;;0.50;0.50;;;;;;;;;;5033322;28;20180;-65
2021/11/11 17:30:31;;;;;;;0.50;0.50;;;;;;;;;;5031691;28;20195;-65
2021/11/11 17:32:58;;;;;;;0.50;0.50;;;;;;;;;;5033517;28;20169;-65
2021/11/11 17:35:24;;;;;;;0.50;0.50;;;;;;;;;;5033287;28;20180;-65
2021/11/11 17:37:51;;;;;;;0.50;0.50;;;;;;;;;;5033815;28;20178;-65
2021/11/11 17:42:47;;;;;;;0.47;0.47;;;;;;;;;;5046843;22;20831;-67
2021/11/11 17:45:16;;;;;;;0.40;0.40;;;;;;;;;;5033435;28;20270;-66
2021/11/11 17:47:42;;;;;;;0.50;0.50;;;;;;;;;;5031974;28;20258;-65
2021/11/11 17:50:17;;;;;;;0.50;0.50;;;;;;;;;;5033108;28;20203;-67
2021/11/11 17:52:50;;;;;;;0.50;0.50;;;;;;;;;;5032736;28;20235;-67
2021/11/11 17:55:26;;;;;;;0.55;0.55;;;;;;;;;;5033148;28;20229;-66
2021/11/11 17:57:52;;;;;;;0.50;0.50;;;;;;;;;;5033333;28;20182;-66
2021/11/11 18:00:18;;;;;;;0.50;0.50;;;;;;;;;;5032398;28;20199;-67
2021/11/11 18:02:44;;;;;;;0.60;0.60;;;;;;;;;;5032896;28;20698;-67
2021/11/11 18:05:14;;;;;;;0.50;0.50;;;;;;;;;;5033016;28;20175;-66
2021/11/11 18:07:42;;;;;;;0.50;0.50;;;;;;;;;;5032837;28;20976;-66
2021/11/11 18:10:11;;;;;;;0.45;0.45;;;;;;;;;;5032720;28;20187;-67
2021/11/11 18:12:43;;;;;;;0.40;0.40;;;;;;;;;;5032808;28;20195;-66
2021/11/11 18:15:16;;;;;;;0.40;0.40;;;;;;;;;;5032876;28;20666;-66
2021/11/11 18:17:50;;;;;;;0.50;0.50;;;;;;;;;;5032845;28;20542;-66
2021/11/11 18:20:16;;;;;;;0.40;0.40;;;;;;;;;;5032331;28;20191;-65
2021/11/11 18:22:42;;;;;;;0.40;0.40;;;;;;;;;;5032541;28;20658;-66
2021/11/11 18:25:09;;;;;;;0.50;0.50;;;;;;;;;;5032567;28;20172;-65
2021/11/11 18:27:35;;;;;;;0.50;0.50;;;;;;;;;;5032481;28;20406;-66
2021/11/11 18:32:57;;;;;;;0.40;0.40;;;;;;;;;;5032429;28;20177;-66
2021/11/11 18:35:25;;;;;;;0.40;0.40;;;;;;;;;;5032457;28;20183;-67
2021/11/11 18:37:51;;;;;;;0.50;0.50;;;;;;;;;;5032412;28;20322;-66
2021/11/11 18:40:17;;;;;;;0.50;0.50;;;;;;;;;;5031983;28;20714;-67
2021/11/11 18:42:43;;;;;;;0.40;0.40;;;;;;;;;;5032107;28;20458;-67